首页
METAR-TAF:

METAR-TAF

机场 :

Meridian Regional Airport (Key Field)

子午线, 密西西比州, 美国

纬度: 32-20-17N, 经度: 088-44-52W, 海拔: 90米

当前天气观测

该预报发布于59分钟前的14:58 UTC
风速6节,风向多变
温度 16°C
湿度 55%
气压 1021 hPa
能見度: 16.1公里
天空无云

METAR: KMEI 021458Z VRB06KT 10SM CLR 16/07 A3014 RMK AO2 SLP205 T01610067 51013

时间: 10:57 (15:57 UTC)

预报

该预报发布于4小时和31分钟前的11:26 UTC
预报有效从02日的 12点(UTC)到 03日的 12点(UTC)
风速4节,风向多变
能見度: 10公里
少量云层高于25000英尺

TAF: KMEI 021126Z 0212/0312 VRB04KT P6SM FEW250

超过4000个机场的气象观测和天气预报(METAR&TAF报告)。

可查询的气象台以黄色和红色小点在地图上表示。

将鼠标移到小点上方,可查看气象台名称。

然后点击查看天气观测和预报。

如需切换地图:点击带黑十字的绿色按钮放大地图;点击带横线的绿色按钮缩小地图;或者点击绿色箭头查看邻近地区的地图。


METAR-TAF: